createdAt,value
2024-01-30T00:00:20.704Z,1.75
2024-01-30T00:02:51.740Z,2.10
2024-01-30T00:05:49.494Z,2.00
2024-01-30T00:08:20.324Z,1.63
2024-01-30T00:10:50.752Z,2.03
2024-01-30T00:13:22.582Z,1.65
2024-01-30T00:15:55.101Z,1.75
2024-01-30T00:18:26.125Z,1.50
2024-01-30T00:20:57.288Z,1.73
2024-01-30T00:23:29.078Z,1.92
2024-01-30T00:25:59.783Z,1.65
2024-01-30T00:28:31.001Z,1.85
2024-01-30T00:31:03.607Z,1.63
2024-01-30T00:33:40.301Z,2.28
2024-01-30T00:36:13.976Z,2.30
2024-01-30T00:38:48.272Z,2.60
2024-01-30T00:41:22.506Z,2.25
2024-01-30T00:43:53.516Z,2.78
2024-01-30T00:46:24.638Z,2.10
2024-01-30T00:48:55.920Z,2.92
2024-01-30T00:51:27.837Z,2.38
2024-01-30T00:54:01.620Z,2.47
2024-01-30T00:56:43.992Z,2.25
2024-01-30T00:59:28.700Z,2.50
2024-01-30T01:01:59.356Z,2.58
2024-01-30T01:04:30.801Z,2.03
2024-01-30T01:07:02.077Z,2.40
2024-01-30T01:09:32.818Z,2.40
2024-01-30T01:12:03.622Z,2.20
2024-01-30T01:14:48.602Z,2.13
2024-01-30T01:17:21.133Z,2.20
2024-01-30T01:19:52.008Z,2.10
2024-01-30T01:22:26.647Z,2.60
2024-01-30T01:25:00.846Z,2.95
2024-01-30T01:27:31.696Z,3.63
2024-01-30T01:30:03.817Z,3.85
2024-01-30T01:32:41.913Z,3.95
2024-01-30T01:35:14.181Z,4.53
2024-01-30T01:37:44.832Z,4.75
2024-01-30T01:40:46.699Z,4.60
2024-01-30T01:43:18.568Z,4.15
2024-01-30T01:45:50.631Z,4.72
2024-01-30T01:48:23.089Z,4.28
2024-01-30T01:50:59.829Z,3.38
2024-01-30T01:56:16.761Z,3.03
2024-01-30T01:58:53.417Z,3.05
2024-01-30T02:01:30.026Z,3.47
2024-01-30T02:04:12.591Z,3.30
2024-01-30T02:06:47.200Z,3.60
2024-01-30T02:09:20.153Z,3.13
2024-01-30T02:12:02.984Z,3.55
2024-01-30T02:14:37.291Z,3.88
2024-01-30T02:17:12.947Z,3.00
2024-01-30T02:19:44.742Z,3.03
2024-01-30T02:22:18.175Z,3.20
2024-01-30T02:24:50.729Z,3.25
2024-01-30T02:27:22.053Z,3.67
2024-01-30T02:29:58.732Z,3.42
2024-01-30T02:32:30.494Z,3.28
2024-01-30T02:35:01.449Z,3.90
2024-01-30T02:37:32.121Z,3.83
2024-01-30T02:40:07.126Z,3.55
2024-01-30T02:46:54.258Z,3.50
2024-01-30T02:49:30.953Z,3.85
2024-01-30T02:52:04.483Z,3.92
2024-01-30T02:54:44.506Z,3.67
2024-01-30T02:57:19.642Z,3.80
2024-01-30T02:59:52.004Z,3.70
2024-01-30T03:02:27.051Z,3.22
2024-01-30T03:04:59.542Z,3.15
2024-01-30T03:07:31.981Z,3.22
2024-01-30T03:10:11.970Z,2.85
2024-01-30T03:12:43.519Z,3.10
2024-01-30T03:15:14.188Z,2.95
2024-01-30T03:17:45.526Z,2.92
2024-01-30T03:20:20.001Z,2.78
2024-01-30T03:22:51.414Z,2.83
2024-01-30T03:25:25.598Z,3.00
2024-01-30T03:28:00.598Z,2.60
2024-01-30T03:30:31.452Z,2.95
2024-01-30T03:33:03.340Z,2.85
2024-01-30T03:35:35.090Z,2.67
2024-01-30T03:38:08.238Z,3.45
2024-01-30T03:40:39.378Z,3.05
2024-01-30T03:43:10.772Z,3.58
2024-01-30T03:45:41.218Z,3.47
2024-01-30T03:52:39.143Z,3.10
2024-01-30T03:55:11.433Z,2.80
2024-01-30T03:58:08.588Z,2.83
2024-01-30T04:00:40.759Z,2.63
2024-01-30T04:03:12.860Z,2.60
2024-01-30T04:05:46.415Z,2.90
2024-01-30T04:08:18.583Z,2.42
2024-01-30T04:10:50.963Z,2.47
2024-01-30T04:13:33.415Z,2.25
2024-01-30T04:16:06.441Z,2.60
2024-01-30T04:18:37.940Z,2.53
2024-01-30T04:21:09.576Z,2.40
2024-01-30T04:23:44.721Z,2.50
2024-01-30T04:26:17.156Z,2.67
2024-01-30T04:28:51.114Z,2.28
2024-01-30T04:31:22.368Z,2.47
2024-01-30T04:33:56.609Z,2.38
2024-01-30T04:36:29.481Z,2.30
2024-01-30T04:39:01.834Z,2.20
2024-01-30T04:41:35.015Z,2.55
2024-01-30T04:44:06.212Z,2.53
2024-01-30T04:46:39.997Z,2.40
2024-01-30T04:49:12.490Z,2.65
2024-01-30T04:51:43.295Z,2.47
2024-01-30T04:54:15.719Z,2.35
2024-01-30T04:56:47.121Z,2.50
2024-01-30T04:59:18.814Z,2.60
2024-01-30T05:01:50.330Z,2.67
2024-01-30T05:04:28.962Z,2.90
2024-01-30T05:07:00.753Z,2.47
2024-01-30T05:09:33.230Z,2.97
2024-01-30T05:12:05.282Z,2.72
2024-01-30T05:14:46.816Z,2.67
2024-01-30T05:17:18.061Z,2.72
2024-01-30T05:19:49.456Z,2.58
2024-01-30T05:22:22.060Z,2.47
2024-01-30T05:24:53.036Z,2.60
2024-01-30T05:27:24.536Z,2.33
2024-01-30T05:29:56.158Z,2.50
2024-01-30T05:32:27.440Z,2.13
2024-01-30T05:34:58.887Z,2.42
2024-01-30T05:37:30.643Z,3.03
2024-01-30T05:40:02.688Z,2.03
2024-01-30T05:42:34.083Z,2.13
2024-01-30T05:45:05.661Z,2.20
2024-01-30T05:47:36.392Z,2.60
2024-01-30T05:50:07.689Z,2.00
2024-01-30T05:52:38.622Z,2.13
2024-01-30T05:55:14.285Z,2.22
2024-01-30T06:00:22.332Z,2.10
2024-01-30T06:02:57.103Z,2.40
2024-01-30T06:05:28.096Z,2.20
2024-01-30T06:07:58.655Z,2.10
2024-01-30T06:10:32.980Z,2.40
2024-01-30T06:13:05.924Z,2.50
2024-01-30T06:15:38.189Z,2.25
2024-01-30T06:18:10.149Z,1.90
2024-01-30T06:20:41.777Z,2.30
2024-01-30T06:23:14.256Z,2.10
2024-01-30T06:25:46.017Z,2.58
2024-01-30T06:28:17.625Z,2.35
2024-01-30T06:30:49.391Z,2.53
2024-01-30T06:33:24.629Z,2.13
2024-01-30T06:35:56.776Z,2.38
2024-01-30T06:39:35.322Z,2.10
2024-01-30T06:42:06.324Z,2.00
2024-01-30T06:44:37.922Z,2.05
2024-01-30T06:47:10.574Z,2.28
2024-01-30T06:49:41.993Z,2.50
2024-01-30T06:52:13.438Z,2.58
2024-01-30T07:00:10.672Z,2.53
2024-01-30T07:02:41.436Z,2.28
2024-01-30T07:05:12.918Z,2.67
2024-01-30T07:07:44.417Z,2.38
2024-01-30T07:10:17.722Z,2.33
2024-01-30T07:12:49.228Z,2.28
2024-01-30T07:15:25.050Z,2.25
2024-01-30T07:17:55.580Z,2.10
2024-01-30T07:20:27.310Z,2.28
2024-01-30T07:23:01.389Z,2.47
2024-01-30T07:25:34.734Z,2.25
2024-01-30T07:28:34.237Z,2.50
2024-01-30T07:31:06.528Z,2.42
2024-01-30T07:33:37.776Z,2.40
2024-01-30T07:36:10.749Z,2.40
2024-01-30T07:38:42.110Z,2.45
2024-01-30T07:41:13.826Z,2.13
2024-01-30T07:43:47.980Z,2.20
2024-01-30T07:46:18.722Z,2.40
2024-01-30T07:48:50.856Z,2.30
2024-01-30T07:51:23.755Z,2.20
2024-01-30T07:53:57.376Z,2.17
2024-01-30T07:56:28.653Z,2.30
2024-01-30T07:58:59.909Z,2.05
2024-01-30T08:01:31.663Z,2.33
2024-01-30T08:04:03.491Z,2.30
2024-01-30T08:06:35.089Z,2.13
2024-01-30T08:09:06.525Z,2.17
2024-01-30T08:11:37.139Z,2.38
2024-01-30T08:14:09.770Z,2.10
2024-01-30T08:16:42.696Z,2.03
2024-01-30T08:19:14.164Z,2.05
2024-01-30T08:21:45.144Z,2.17
2024-01-30T08:24:15.604Z,1.90
2024-01-30T08:26:47.311Z,2.05
2024-01-30T08:29:19.366Z,2.00
2024-01-30T08:32:03.594Z,1.73
2024-01-30T08:34:35.147Z,2.30
2024-01-30T08:37:12.224Z,1.70
2024-01-30T08:39:46.870Z,1.77
2024-01-30T08:42:17.518Z,1.65
2024-01-30T08:44:48.619Z,1.67
2024-01-30T08:47:38.429Z,1.95
2024-01-30T08:50:10.844Z,1.60
2024-01-30T08:53:22.491Z,1.70
2024-01-30T08:55:53.026Z,1.65
2024-01-30T08:58:24.882Z,1.70
2024-01-30T09:00:57.137Z,1.55
2024-01-30T09:03:29.499Z,1.42
2024-01-30T09:06:00.669Z,1.50
2024-01-30T09:08:32.500Z,1.52
2024-01-30T09:11:03.525Z,1.60
2024-01-30T09:13:35.325Z,1.33
2024-01-30T09:16:06.896Z,1.60
2024-01-30T09:18:38.885Z,1.48
2024-01-30T09:21:10.806Z,1.60
2024-01-30T09:23:41.614Z,1.40
2024-01-30T09:26:12.292Z,1.40
2024-01-30T09:28:46.502Z,1.58
2024-01-30T09:31:19.253Z,1.35
2024-01-30T09:33:53.160Z,1.55
2024-01-30T09:36:25.368Z,1.50
2024-01-30T09:38:57.753Z,1.70
2024-01-30T09:41:32.229Z,1.60
2024-01-30T09:44:03.039Z,1.65
2024-01-30T09:46:37.298Z,1.83
2024-01-30T09:49:12.016Z,1.70
2024-01-30T09:51:44.189Z,1.50
2024-01-30T09:54:18.067Z,1.40
2024-01-30T09:56:50.378Z,1.70
2024-01-30T09:59:28.503Z,1.52
2024-01-30T10:02:00.329Z,1.33
2024-01-30T10:04:32.326Z,1.40
2024-01-30T10:07:05.654Z,1.52
2024-01-30T10:09:37.145Z,1.85
2024-01-30T10:12:34.512Z,1.30
2024-01-30T10:15:05.278Z,1.63
2024-01-30T10:17:37.223Z,1.35
2024-01-30T10:20:09.962Z,1.42
2024-01-30T10:22:41.849Z,1.38
2024-01-30T10:25:14.415Z,1.33
2024-01-30T10:27:44.987Z,1.45
2024-01-30T10:30:16.339Z,1.30
2024-01-30T10:32:55.194Z,1.77
2024-01-30T10:35:26.082Z,1.13
2024-01-30T10:38:03.261Z,1.42
2024-01-30T10:40:37.026Z,1.00
2024-01-30T10:43:10.102Z,1.30
2024-01-30T10:45:44.144Z,1.20
2024-01-30T10:48:16.993Z,1.20
2024-01-30T10:50:54.058Z,1.08
2024-01-30T10:53:32.560Z,1.08
2024-01-30T10:56:08.325Z,1.10
2024-01-30T10:58:38.900Z,1.20
2024-01-30T11:01:10.382Z,1.10
2024-01-30T11:03:41.576Z,1.10
2024-01-30T11:06:16.373Z,1.10
2024-01-30T11:08:49.409Z,1.10
2024-01-30T11:11:21.325Z,0.80
2024-01-30T11:13:53.443Z,0.93
2024-01-30T11:16:24.100Z,1.08
2024-01-30T11:18:56.003Z,0.90
2024-01-30T11:21:28.681Z,1.20
2024-01-30T11:23:59.691Z,1.00
2024-01-30T11:26:34.416Z,1.10
2024-01-30T11:29:11.958Z,0.90
2024-01-30T11:31:43.220Z,0.90
2024-01-30T11:34:17.487Z,4.63
2024-01-30T11:36:53.597Z,5.55
2024-01-30T11:39:25.394Z,4.07
2024-01-30T11:41:57.035Z,3.20
2024-01-30T11:44:29.826Z,3.28
2024-01-30T11:47:01.232Z,3.90
2024-01-30T11:50:00.968Z,3.33
2024-01-30T11:52:32.238Z,2.85
2024-01-30T11:55:03.117Z,4.15
2024-01-30T11:57:33.912Z,4.60
2024-01-30T12:00:06.998Z,2.97
2024-01-30T12:02:40.672Z,1.77
2024-01-30T12:05:14.968Z,2.60
2024-01-30T12:07:49.825Z,2.50
2024-01-30T12:10:21.753Z,1.75
2024-01-30T12:12:57.386Z,2.15
2024-01-30T12:15:29.280Z,2.88
2024-01-30T12:18:10.389Z,3.58
2024-01-30T12:23:11.388Z,2.50
2024-01-30T12:25:41.782Z,0.98
2024-01-30T12:28:12.629Z,0.82
2024-01-30T12:30:43.551Z,2.30
2024-01-30T12:33:21.770Z,1.02
2024-01-30T12:36:02.582Z,0.63
2024-01-30T12:38:35.635Z,3.28
2024-01-30T12:41:08.164Z,1.58
2024-01-30T12:43:39.436Z,0.40
2024-01-30T12:46:10.783Z,2.45
2024-01-30T12:48:46.636Z,0.30
2024-01-30T12:51:17.271Z,2.38
2024-01-30T12:53:48.968Z,0.82
2024-01-30T12:56:19.552Z,2.25
2024-01-30T12:58:54.047Z,2.42
2024-01-30T13:01:26.642Z,2.63
2024-01-30T13:04:01.243Z,1.77
2024-01-30T13:06:32.963Z,2.35
2024-01-30T13:09:03.372Z,2.30
2024-01-30T13:11:33.728Z,2.72
2024-01-30T13:14:06.306Z,1.70
2024-01-30T13:16:37.362Z,2.17
2024-01-30T13:19:11.635Z,1.42
2024-01-30T13:21:42.372Z,1.90
2024-01-30T13:24:12.817Z,1.50
2024-01-30T13:26:43.745Z,1.55
2024-01-30T13:29:14.465Z,1.73
2024-01-30T13:31:47.437Z,1.80
2024-01-30T13:34:18.070Z,2.88
2024-01-30T13:36:48.299Z,1.98
2024-01-30T13:39:21.766Z,1.55
2024-01-30T13:41:55.250Z,2.60
2024-01-30T13:44:25.946Z,1.40
2024-01-30T13:46:57.886Z,3.40
2024-01-30T13:49:31.523Z,2.53
2024-01-30T13:52:04.152Z,0.60
2024-01-30T13:54:36.035Z,0.80
2024-01-30T13:57:09.262Z,0.60
2024-01-30T13:59:41.258Z,0.60
2024-01-30T14:02:13.102Z,0.60
2024-01-30T14:04:44.010Z,3.05
2024-01-30T14:07:15.378Z,0.60
2024-01-30T14:09:53.493Z,0.90
2024-01-30T14:12:25.637Z,1.05
2024-01-30T14:14:57.487Z,3.50
2024-01-30T14:17:27.819Z,0.90
2024-01-30T14:19:58.692Z,1.10
2024-01-30T14:22:33.552Z,1.00
2024-01-30T14:25:07.654Z,0.82
2024-01-30T14:27:39.835Z,0.82
2024-01-30T14:30:14.017Z,1.55
2024-01-30T14:32:48.142Z,1.20
2024-01-30T14:35:19.235Z,1.13
2024-01-30T14:37:50.463Z,2.47
2024-01-30T14:40:21.592Z,3.10
2024-01-30T14:42:52.394Z,3.15
2024-01-30T14:45:24.543Z,1.30
2024-01-30T14:47:56.007Z,2.95
2024-01-30T14:50:26.772Z,3.88
2024-01-30T14:52:57.060Z,4.18
2024-01-30T14:55:27.209Z,2.10
2024-01-30T14:57:57.789Z,3.97
2024-01-30T15:00:30.591Z,3.88
2024-01-30T15:03:01.838Z,3.25
2024-01-30T15:05:32.358Z,2.00
2024-01-30T15:08:02.928Z,2.58
2024-01-30T15:10:37.238Z,5.20
2024-01-30T15:13:09.814Z,2.85
2024-01-30T15:15:43.085Z,5.88
2024-01-30T15:18:17.941Z,3.28
2024-01-30T15:20:48.844Z,2.00
2024-01-30T15:23:20.202Z,2.50
2024-01-30T15:25:51.374Z,4.20
2024-01-30T15:28:24.031Z,4.05
2024-01-30T15:30:54.846Z,2.95
2024-01-30T15:33:29.570Z,2.45
2024-01-30T15:36:01.363Z,2.38
2024-01-30T15:38:33.582Z,2.30
2024-01-30T15:41:05.425Z,2.45
2024-01-30T15:43:36.908Z,1.60
2024-01-30T15:46:10.638Z,1.40
2024-01-30T15:48:43.164Z,1.48
2024-01-30T15:51:13.752Z,1.42
2024-01-30T15:53:44.076Z,1.23
2024-01-30T15:56:14.394Z,2.05
2024-01-30T15:58:44.590Z,1.63
2024-01-30T16:01:15.586Z,1.60
2024-01-30T16:03:49.928Z,1.30
2024-01-30T16:06:20.398Z,1.30
2024-01-30T16:08:52.042Z,0.90
2024-01-30T16:11:23.733Z,1.30
2024-01-30T16:13:54.949Z,1.10
2024-01-30T16:16:26.235Z,1.23
2024-01-30T16:18:59.298Z,1.60
2024-01-30T16:21:31.554Z,2.25
2024-01-30T16:24:05.250Z,1.20
2024-01-30T16:26:35.872Z,1.15
2024-01-30T16:29:07.732Z,1.40
2024-01-30T16:31:38.758Z,1.20
2024-01-30T16:34:10.999Z,1.52
2024-01-30T16:36:42.996Z,1.33
2024-01-30T16:39:14.623Z,1.42
2024-01-30T16:41:48.182Z,1.60
2024-01-30T16:44:19.296Z,1.55
2024-01-30T16:46:52.481Z,2.45
2024-01-30T16:49:25.865Z,1.58
2024-01-30T16:51:58.021Z,2.03
2024-01-30T16:54:29.436Z,1.50
2024-01-30T16:57:00.440Z,1.40
2024-01-30T16:59:31.654Z,1.20
2024-01-30T17:02:07.628Z,1.42
2024-01-30T17:04:38.523Z,1.58
2024-01-30T17:07:09.226Z,1.42
2024-01-30T17:09:41.105Z,2.00
2024-01-30T17:12:15.833Z,2.25
2024-01-30T17:14:46.553Z,2.35
2024-01-30T17:17:17.801Z,1.08
2024-01-30T17:19:49.016Z,1.35
2024-01-30T17:22:24.896Z,0.80
2024-01-30T17:25:00.332Z,0.93
2024-01-30T17:30:06.067Z,1.65
2024-01-30T17:32:37.598Z,2.67
2024-01-30T17:35:08.799Z,1.88
2024-01-30T17:37:42.364Z,0.93
2024-01-30T17:40:14.581Z,0.52
2024-01-30T17:42:45.905Z,0.70
2024-01-30T17:45:16.415Z,2.20
2024-01-30T17:47:47.236Z,1.92
2024-01-30T17:50:22.177Z,1.70
2024-01-30T17:52:53.701Z,0.55
2024-01-30T17:55:26.063Z,3.08
2024-01-30T17:57:56.672Z,1.52
2024-01-30T18:00:31.335Z,2.17
2024-01-30T18:03:03.968Z,1.70
2024-01-30T18:05:35.338Z,1.67
2024-01-30T18:08:10.557Z,1.27
2024-01-30T18:10:42.642Z,1.85
2024-01-30T18:13:20.153Z,1.50
2024-01-30T18:15:54.027Z,2.15
2024-01-30T18:18:32.002Z,2.20
2024-01-30T18:21:03.216Z,1.85
2024-01-30T18:23:37.830Z,1.48
2024-01-30T18:26:08.700Z,1.60
2024-01-30T18:28:39.287Z,2.72
2024-01-30T18:31:10.954Z,2.33
2024-01-30T18:33:42.785Z,2.50
2024-01-30T18:36:15.370Z,1.27
2024-01-30T18:38:48.939Z,1.83
2024-01-30T18:41:20.046Z,2.83
2024-01-30T18:43:51.086Z,1.15
2024-01-30T18:49:22.614Z,2.20
2024-01-30T18:51:55.333Z,2.30
2024-01-30T18:54:29.640Z,1.70
2024-01-30T18:57:00.684Z,1.60
2024-01-30T18:59:30.885Z,2.42
2024-01-30T19:02:01.395Z,2.33
2024-01-30T19:04:31.610Z,1.95
2024-01-30T19:07:04.611Z,1.30
2024-01-30T19:09:35.259Z,2.08
2024-01-30T19:12:05.899Z,1.63
2024-01-30T19:14:39.239Z,2.25
2024-01-30T19:17:11.482Z,2.05
2024-01-30T19:19:43.462Z,1.90
2024-01-30T19:22:14.650Z,1.42
2024-01-30T19:24:45.624Z,2.22
2024-01-30T19:27:15.759Z,2.22
2024-01-30T19:29:46.192Z,2.25
2024-01-30T19:32:17.572Z,1.75
2024-01-30T19:34:50.077Z,1.10
2024-01-30T19:37:27.630Z,1.85
2024-01-30T19:39:58.557Z,1.83
2024-01-30T19:42:29.499Z,1.63
2024-01-30T19:44:59.821Z,1.95
2024-01-30T19:47:30.990Z,2.45
2024-01-30T19:50:01.855Z,2.17
2024-01-30T19:52:35.456Z,1.55
2024-01-30T19:55:06.780Z,2.60
2024-01-30T19:57:37.025Z,1.80
2024-01-30T20:00:07.971Z,1.83
2024-01-30T20:02:38.744Z,2.00
2024-01-30T20:05:10.206Z,2.42
2024-01-30T20:07:40.730Z,1.65
2024-01-30T20:10:13.515Z,2.25
2024-01-30T20:12:44.986Z,1.70
2024-01-30T20:15:17.276Z,1.95
2024-01-30T20:17:47.934Z,1.92
2024-01-30T20:20:19.235Z,2.45
2024-01-30T20:22:51.225Z,2.28
2024-01-30T20:25:22.158Z,2.28
2024-01-30T20:27:52.927Z,2.65
2024-01-30T20:30:24.972Z,2.60
2024-01-30T20:32:56.515Z,2.08
2024-01-30T20:35:28.929Z,2.05
2024-01-30T20:38:00.995Z,2.20
2024-01-30T20:40:32.867Z,1.85
2024-01-30T20:43:03.273Z,2.08
2024-01-30T20:45:33.543Z,2.88
2024-01-30T20:48:04.505Z,1.77
2024-01-30T20:50:36.631Z,2.50
2024-01-30T20:53:11.773Z,2.15
2024-01-30T20:55:42.735Z,2.13
2024-01-30T20:58:13.148Z,1.52
2024-01-30T21:00:44.205Z,1.27
2024-01-30T21:03:14.844Z,2.20
2024-01-30T21:05:48.263Z,2.33
2024-01-30T21:08:22.256Z,1.95
2024-01-30T21:10:53.574Z,2.25
2024-01-30T21:13:25.435Z,2.17
2024-01-30T21:15:58.019Z,2.47
2024-01-30T21:18:29.370Z,1.77
2024-01-30T21:21:01.180Z,2.08
2024-01-30T21:23:32.166Z,1.98
2024-01-30T21:26:07.183Z,2.53
2024-01-30T21:28:38.597Z,2.00
2024-01-30T21:31:12.021Z,2.22
2024-01-30T21:33:43.152Z,1.80
2024-01-30T21:36:14.754Z,2.17
2024-01-30T21:38:47.250Z,1.90
2024-01-30T21:41:21.517Z,2.45
2024-01-30T21:43:55.284Z,1.83
2024-01-30T21:46:30.278Z,2.35
2024-01-30T21:49:01.772Z,2.58
2024-01-30T21:51:33.240Z,2.30
2024-01-30T21:54:03.758Z,3.00
2024-01-30T21:56:41.230Z,2.70
2024-01-30T21:59:15.306Z,2.13
2024-01-30T22:01:49.375Z,3.85
2024-01-30T22:04:20.173Z,1.88
2024-01-30T22:06:50.702Z,1.20
2024-01-30T22:09:28.222Z,2.42
2024-01-30T22:12:03.240Z,1.60
2024-01-30T22:14:35.981Z,1.65
2024-01-30T22:17:07.790Z,2.78
2024-01-30T22:19:38.166Z,2.40
2024-01-30T22:22:08.870Z,2.78
2024-01-30T22:24:41.886Z,1.90
2024-01-30T22:27:13.264Z,1.98
2024-01-30T22:29:46.069Z,2.42
2024-01-30T22:32:17.502Z,1.45
2024-01-30T22:34:48.686Z,2.13
2024-01-30T22:37:18.808Z,2.17
2024-01-30T22:39:49.934Z,2.75
2024-01-30T22:42:21.128Z,3.13
2024-01-30T22:44:52.732Z,3.22
2024-01-30T22:47:25.787Z,2.30
2024-01-30T22:50:01.195Z,2.55
2024-01-30T22:52:32.494Z,2.05
2024-01-30T22:55:04.214Z,2.72
2024-01-30T22:57:36.447Z,2.25
2024-01-30T23:00:36.319Z,2.97
2024-01-30T23:03:13.573Z,2.00
2024-01-30T23:05:45.836Z,2.72
2024-01-30T23:08:16.802Z,3.22
2024-01-30T23:10:47.325Z,3.10
2024-01-30T23:13:20.728Z,3.28
2024-01-30T23:15:55.492Z,3.50
2024-01-30T23:18:26.629Z,4.78
2024-01-30T23:20:57.390Z,3.15
2024-01-30T23:23:30.347Z,3.28
2024-01-30T23:26:02.979Z,3.72
2024-01-30T23:28:33.618Z,3.05
2024-01-30T23:31:04.582Z,4.60
2024-01-30T23:33:36.012Z,3.58
2024-01-30T23:36:06.827Z,2.67
2024-01-30T23:38:38.067Z,3.28
2024-01-30T23:41:11.664Z,4.05
2024-01-30T23:43:42.801Z,2.88
2024-01-30T23:46:13.670Z,4.22
2024-01-30T23:48:44.010Z,3.95
2024-01-30T23:51:15.791Z,3.50
2024-01-30T23:53:46.726Z,3.50
2024-01-30T23:56:18.152Z,4.72
2024-01-30T23:58:52.576Z,4.13
